Terminal Aerodrome Forecast
Issued by NWS

Home | Current Version | Previous Version | Graphics & Text | Print | Product List | Glossary On
Versions: 1 2 3 4 5 6 7 8 9 10 11 12 13 14 15
043
FTUS43 KMPX 232343
TAFRNH
TAF
KRNH 232343Z 2400/2424 17010KT P6SM BKN150
     FM240200 16007KT P6SM -SHRA BKN040 OVC120
     FM240900 20005KT 6SM BR SCT007 OVC015 PROB30 2409/2412 TSRA
      SCT007 OVC015CB
     FM241500 27007KT P6SM SCT025
     FM241800 29010KT P6SM FEW025=

USA.gov is the U.S. government's official web portal to all federal, state and local government web resources and services.